sensor_id;sensor_type;location;lat;lon;timestamp;temperature;humidity
15328;DHT22;7764;51.430;6.840;2023-01-31T00:00:25;5.00;99.90
15328;DHT22;7764;51.430;6.840;2023-01-31T00:02:52;5.00;99.90
15328;DHT22;7764;51.430;6.840;2023-01-31T00:05:19;5.00;99.90
15328;DHT22;7764;51.430;6.840;2023-01-31T00:07:46;5.10;99.90
15328;DHT22;7764;51.430;6.840;2023-01-31T00:10:14;5.10;99.90
15328;DHT22;7764;51.430;6.840;2023-01-31T00:12:41;5.10;99.90
15328;DHT22;7764;51.430;6.840;2023-01-31T00:15:08;5.00;99.90
15328;DHT22;7764;51.430;6.840;2023-01-31T00:17:38;5.10;99.90
15328;DHT22;7764;51.430;6.840;2023-01-31T00:20:05;5.10;99.90
15328;DHT22;7764;51.430;6.840;2023-01-31T00:22:32;5.10;99.90
15328;DHT22;7764;51.430;6.840;2023-01-31T00:24:59;5.10;99.90
15328;DHT22;7764;51.430;6.840;2023-01-31T00:27:27;5.20;99.90
15328;DHT22;7764;51.430;6.840;2023-01-31T00:29:54;5.10;99.90
15328;DHT22;7764;51.430;6.840;2023-01-31T00:32:21;5.20;99.90
15328;DHT22;7764;51.430;6.840;2023-01-31T00:34:51;5.20;99.90
15328;DHT22;7764;51.430;6.840;2023-01-31T00:37:18;5.20;99.90
15328;DHT22;7764;51.430;6.840;2023-01-31T00:39:45;5.20;99.90
15328;DHT22;7764;51.430;6.840;2023-01-31T00:42:12;5.20;99.90
15328;DHT22;7764;51.430;6.840;2023-01-31T00:44:40;5.20;99.90
15328;DHT22;7764;51.430;6.840;2023-01-31T00:47:07;5.20;99.90
15328;DHT22;7764;51.430;6.840;2023-01-31T00:49:33;5.20;99.90
15328;DHT22;7764;51.430;6.840;2023-01-31T00:52:00;5.20;99.90
15328;DHT22;7764;51.430;6.840;2023-01-31T00:54:27;5.20;99.90
15328;DHT22;7764;51.430;6.840;2023-01-31T00:56:54;5.10;99.90
15328;DHT22;7764;51.430;6.840;2023-01-31T00:59:21;5.10;99.90
15328;DHT22;7764;51.430;6.840;2023-01-31T01:01:49;5.10;99.90
15328;DHT22;7764;51.430;6.840;2023-01-31T01:04:16;5.10;99.90
15328;DHT22;7764;51.430;6.840;2023-01-31T01:06:42;5.00;99.90
15328;DHT22;7764;51.430;6.840;2023-01-31T01:09:12;5.00;99.90
15328;DHT22;7764;51.430;6.840;2023-01-31T01:11:38;4.90;99.90
15328;DHT22;7764;51.430;6.840;2023-01-31T01:14:05;4.90;99.90
15328;DHT22;7764;51.430;6.840;2023-01-31T01:16:34;4.80;99.90
15328;DHT22;7764;51.430;6.840;2023-01-31T01:19:04;4.80;99.90
15328;DHT22;7764;51.430;6.840;2023-01-31T01:21:32;4.80;99.90
15328;DHT22;7764;51.430;6.840;2023-01-31T01:24:02;4.80;99.90
15328;DHT22;7764;51.430;6.840;2023-01-31T01:26:31;4.80;99.90
15328;DHT22;7764;51.430;6.840;2023-01-31T01:28:59;4.80;99.90
15328;DHT22;7764;51.430;6.840;2023-01-31T01:31:27;4.80;99.90
15328;DHT22;7764;51.430;6.840;2023-01-31T01:33:56;4.80;99.90
15328;DHT22;7764;51.430;6.840;2023-01-31T01:36:25;4.80;99.90
15328;DHT22;7764;51.430;6.840;2023-01-31T01:38:52;4.70;99.90
15328;DHT22;7764;51.430;6.840;2023-01-31T01:41:21;4.70;99.90
15328;DHT22;7764;51.430;6.840;2023-01-31T01:43:49;4.60;99.90
15328;DHT22;7764;51.430;6.840;2023-01-31T01:46:22;4.60;99.90
15328;DHT22;7764;51.430;6.840;2023-01-31T01:48:53;4.60;99.90
15328;DHT22;7764;51.430;6.840;2023-01-31T01:51:22;4.60;99.90
15328;DHT22;7764;51.430;6.840;2023-01-31T01:53:55;4.60;99.90
15328;DHT22;7764;51.430;6.840;2023-01-31T01:56:27;4.60;99.90
15328;DHT22;7764;51.430;6.840;2023-01-31T01:59:02;4.60;99.90
15328;DHT22;7764;51.430;6.840;2023-01-31T02:01:33;4.70;99.90
15328;DHT22;7764;51.430;6.840;2023-01-31T02:04:02;4.60;99.90
15328;DHT22;7764;51.430;6.840;2023-01-31T02:06:29;4.70;99.90
15328;DHT22;7764;51.430;6.840;2023-01-31T02:08:58;4.70;99.90
15328;DHT22;7764;51.430;6.840;2023-01-31T02:11:26;4.70;99.90
15328;DHT22;7764;51.430;6.840;2023-01-31T02:13:58;4.80;99.90
15328;DHT22;7764;51.430;6.840;2023-01-31T02:16:26;4.80;99.90
15328;DHT22;7764;51.430;6.840;2023-01-31T02:18:53;4.80;99.90
15328;DHT22;7764;51.430;6.840;2023-01-31T02:21:50;4.70;99.90
15328;DHT22;7764;51.430;6.840;2023-01-31T02:33:30;4.70;99.90
15328;DHT22;7764;51.430;6.840;2023-01-31T02:36:07;4.70;99.90
15328;DHT22;7764;51.430;6.840;2023-01-31T02:38:44;4.70;99.90
15328;DHT22;7764;51.430;6.840;2023-01-31T02:41:16;4.60;99.90
15328;DHT22;7764;51.430;6.840;2023-01-31T02:43:52;4.60;99.90
15328;DHT22;7764;51.430;6.840;2023-01-31T02:46:41;4.50;99.90
15328;DHT22;7764;51.430;6.840;2023-01-31T02:49:15;4.50;99.90
15328;DHT22;7764;51.430;6.840;2023-01-31T02:52:02;4.50;99.90
15328;DHT22;7764;51.430;6.840;2023-01-31T02:54:58;4.50;99.90
15328;DHT22;7764;51.430;6.840;2023-01-31T02:57:44;4.40;99.90
15328;DHT22;7764;51.430;6.840;2023-01-31T03:00:13;4.30;99.90
15328;DHT22;7764;51.430;6.840;2023-01-31T03:02:40;4.30;99.90
15328;DHT22;7764;51.430;6.840;2023-01-31T03:05:11;4.30;99.90
15328;DHT22;7764;51.430;6.840;2023-01-31T03:07:41;4.30;99.90
15328;DHT22;7764;51.430;6.840;2023-01-31T03:10:28;4.30;99.90
15328;DHT22;7764;51.430;6.840;2023-01-31T03:13:06;4.30;99.90
15328;DHT22;7764;51.430;6.840;2023-01-31T03:15:49;4.30;99.90
15328;DHT22;7764;51.430;6.840;2023-01-31T03:18:41;4.20;99.90
15328;DHT22;7764;51.430;6.840;2023-01-31T03:21:13;4.30;99.90
15328;DHT22;7764;51.430;6.840;2023-01-31T03:23:44;4.30;99.90
15328;DHT22;7764;51.430;6.840;2023-01-31T03:26:13;4.30;99.90
15328;DHT22;7764;51.430;6.840;2023-01-31T03:28:41;4.30;99.90
15328;DHT22;7764;51.430;6.840;2023-01-31T03:31:13;4.40;99.90
15328;DHT22;7764;51.430;6.840;2023-01-31T03:33:44;4.30;99.90
15328;DHT22;7764;51.430;6.840;2023-01-31T03:36:22;4.30;99.90
15328;DHT22;7764;51.430;6.840;2023-01-31T03:38:57;4.30;99.90
15328;DHT22;7764;51.430;6.840;2023-01-31T03:41:31;4.40;99.90
15328;DHT22;7764;51.430;6.840;2023-01-31T03:44:04;4.30;99.90
15328;DHT22;7764;51.430;6.840;2023-01-31T03:46:35;4.40;99.90
15328;DHT22;7764;51.430;6.840;2023-01-31T03:49:07;4.40;99.90
15328;DHT22;7764;51.430;6.840;2023-01-31T03:51:40;4.30;99.90
15328;DHT22;7764;51.430;6.840;2023-01-31T03:54:12;4.30;99.90
15328;DHT22;7764;51.430;6.840;2023-01-31T03:56:43;4.40;99.90
15328;DHT22;7764;51.430;6.840;2023-01-31T03:59:13;4.40;99.90
15328;DHT22;7764;51.430;6.840;2023-01-31T04:01:43;4.40;99.90
15328;DHT22;7764;51.430;6.840;2023-01-31T04:04:17;4.40;99.90
15328;DHT22;7764;51.430;6.840;2023-01-31T04:06:46;4.30;99.90
15328;DHT22;7764;51.430;6.840;2023-01-31T04:09:13;4.30;99.90
15328;DHT22;7764;51.430;6.840;2023-01-31T04:11:41;4.30;99.90
15328;DHT22;7764;51.430;6.840;2023-01-31T04:14:08;4.30;99.90
15328;DHT22;7764;51.430;6.840;2023-01-31T04:16:35;4.30;99.90
15328;DHT22;7764;51.430;6.840;2023-01-31T04:19:02;4.30;99.90
15328;DHT22;7764;51.430;6.840;2023-01-31T04:21:28;4.40;99.90
15328;DHT22;7764;51.430;6.840;2023-01-31T04:23:57;4.40;99.90
15328;DHT22;7764;51.430;6.840;2023-01-31T04:26:24;4.40;99.90
15328;DHT22;7764;51.430;6.840;2023-01-31T04:28:50;4.50;99.90
15328;DHT22;7764;51.430;6.840;2023-01-31T04:31:17;4.40;99.90
15328;DHT22;7764;51.430;6.840;2023-01-31T04:33:44;4.40;99.90
15328;DHT22;7764;51.430;6.840;2023-01-31T04:36:11;4.40;99.90
15328;DHT22;7764;51.430;6.840;2023-01-31T04:38:38;4.50;99.90
15328;DHT22;7764;51.430;6.840;2023-01-31T04:41:06;4.50;99.90
15328;DHT22;7764;51.430;6.840;2023-01-31T04:43:33;4.50;99.90
15328;DHT22;7764;51.430;6.840;2023-01-31T04:46:00;4.50;99.90
15328;DHT22;7764;51.430;6.840;2023-01-31T04:48:27;4.50;99.90
15328;DHT22;7764;51.430;6.840;2023-01-31T04:50:53;4.50;99.90
15328;DHT22;7764;51.430;6.840;2023-01-31T04:53:20;4.60;99.90
15328;DHT22;7764;51.430;6.840;2023-01-31T04:55:47;4.60;99.90
15328;DHT22;7764;51.430;6.840;2023-01-31T04:58:16;4.60;99.90
15328;DHT22;7764;51.430;6.840;2023-01-31T05:00:43;4.60;99.90
15328;DHT22;7764;51.430;6.840;2023-01-31T05:03:10;4.60;99.90
15328;DHT22;7764;51.430;6.840;2023-01-31T05:05:37;4.60;99.90
15328;DHT22;7764;51.430;6.840;2023-01-31T05:08:04;4.70;99.90
15328;DHT22;7764;51.430;6.840;2023-01-31T05:10:33;4.70;99.90
15328;DHT22;7764;51.430;6.840;2023-01-31T05:13:00;4.70;99.90
15328;DHT22;7764;51.430;6.840;2023-01-31T05:15:28;4.70;99.90
15328;DHT22;7764;51.430;6.840;2023-01-31T05:17:55;4.70;99.90
15328;DHT22;7764;51.430;6.840;2023-01-31T05:20:27;4.80;99.90
15328;DHT22;7764;51.430;6.840;2023-01-31T05:22:54;4.80;99.90
15328;DHT22;7764;51.430;6.840;2023-01-31T05:25:21;4.80;99.90
15328;DHT22;7764;51.430;6.840;2023-01-31T05:27:47;4.80;99.90
15328;DHT22;7764;51.430;6.840;2023-01-31T05:30:14;4.80;99.90
15328;DHT22;7764;51.430;6.840;2023-01-31T05:32:43;4.80;99.90
15328;DHT22;7764;51.430;6.840;2023-01-31T05:35:10;4.80;99.90
15328;DHT22;7764;51.430;6.840;2023-01-31T05:37:37;4.70;99.90
15328;DHT22;7764;51.430;6.840;2023-01-31T05:40:08;4.70;99.90
15328;DHT22;7764;51.430;6.840;2023-01-31T05:42:36;4.70;99.90
15328;DHT22;7764;51.430;6.840;2023-01-31T05:45:03;4.70;99.90
15328;DHT22;7764;51.430;6.840;2023-01-31T05:47:30;4.70;99.90
15328;DHT22;7764;51.430;6.840;2023-01-31T05:49:59;4.60;99.90
15328;DHT22;7764;51.430;6.840;2023-01-31T05:52:26;4.60;99.90
15328;DHT22;7764;51.430;6.840;2023-01-31T05:54:53;4.50;99.90
15328;DHT22;7764;51.430;6.840;2023-01-31T05:57:20;4.60;99.90
15328;DHT22;7764;51.430;6.840;2023-01-31T05:59:47;4.60;99.90
15328;DHT22;7764;51.430;6.840;2023-01-31T06:02:14;4.60;99.90
15328;DHT22;7764;51.430;6.840;2023-01-31T06:04:40;4.60;99.90
15328;DHT22;7764;51.430;6.840;2023-01-31T06:07:09;4.60;99.90
15328;DHT22;7764;51.430;6.840;2023-01-31T06:09:35;4.60;99.90
15328;DHT22;7764;51.430;6.840;2023-01-31T06:12:03;4.70;99.90
15328;DHT22;7764;51.430;6.840;2023-01-31T06:14:30;4.70;99.90
15328;DHT22;7764;51.430;6.840;2023-01-31T06:16:57;4.70;99.90
15328;DHT22;7764;51.430;6.840;2023-01-31T06:19:24;4.80;99.90
15328;DHT22;7764;51.430;6.840;2023-01-31T06:21:51;4.80;99.90
15328;DHT22;7764;51.430;6.840;2023-01-31T06:24:19;4.80;99.90
15328;DHT22;7764;51.430;6.840;2023-01-31T06:26:46;4.90;99.90
15328;DHT22;7764;51.430;6.840;2023-01-31T06:29:13;4.90;99.90
15328;DHT22;7764;51.430;6.840;2023-01-31T06:31:42;4.90;99.90
15328;DHT22;7764;51.430;6.840;2023-01-31T06:34:10;4.90;99.90
15328;DHT22;7764;51.430;6.840;2023-01-31T06:36:37;4.90;99.90
15328;DHT22;7764;51.430;6.840;2023-01-31T06:39:04;4.90;99.90
15328;DHT22;7764;51.430;6.840;2023-01-31T06:41:32;4.90;99.90
15328;DHT22;7764;51.430;6.840;2023-01-31T06:43:59;4.90;99.90
15328;DHT22;7764;51.430;6.840;2023-01-31T06:46:26;4.90;99.90
15328;DHT22;7764;51.430;6.840;2023-01-31T06:48:53;5.00;99.90
15328;DHT22;7764;51.430;6.840;2023-01-31T06:51:20;5.00;99.90
15328;DHT22;7764;51.430;6.840;2023-01-31T06:53:46;5.00;99.90
15328;DHT22;7764;51.430;6.840;2023-01-31T06:56:16;5.00;99.90
15328;DHT22;7764;51.430;6.840;2023-01-31T06:58:44;5.10;99.90
15328;DHT22;7764;51.430;6.840;2023-01-31T07:01:12;5.10;99.90
15328;DHT22;7764;51.430;6.840;2023-01-31T07:03:39;5.10;99.90
15328;DHT22;7764;51.430;6.840;2023-01-31T07:06:07;5.10;99.90
15328;DHT22;7764;51.430;6.840;2023-01-31T07:08:35;5.10;99.90
15328;DHT22;7764;51.430;6.840;2023-01-31T07:11:02;5.20;99.90
15328;DHT22;7764;51.430;6.840;2023-01-31T07:13:29;5.20;99.90
15328;DHT22;7764;51.430;6.840;2023-01-31T07:15:58;5.30;99.90
15328;DHT22;7764;51.430;6.840;2023-01-31T07:18:24;5.30;99.90
15328;DHT22;7764;51.430;6.840;2023-01-31T07:20:51;5.40;99.90
15328;DHT22;7764;51.430;6.840;2023-01-31T07:23:18;5.40;99.90
15328;DHT22;7764;51.430;6.840;2023-01-31T07:25:45;5.50;99.90
15328;DHT22;7764;51.430;6.840;2023-01-31T07:28:12;5.50;99.90
15328;DHT22;7764;51.430;6.840;2023-01-31T07:30:39;5.60;99.90
15328;DHT22;7764;51.430;6.840;2023-01-31T07:33:09;5.70;99.90
15328;DHT22;7764;51.430;6.840;2023-01-31T07:35:36;5.70;99.90
15328;DHT22;7764;51.430;6.840;2023-01-31T07:38:03;5.70;99.90
15328;DHT22;7764;51.430;6.840;2023-01-31T07:40:30;5.70;99.90
15328;DHT22;7764;51.430;6.840;2023-01-31T07:42:57;5.80;99.90
15328;DHT22;7764;51.430;6.840;2023-01-31T07:45:24;5.80;99.90
15328;DHT22;7764;51.430;6.840;2023-01-31T07:47:51;5.80;99.90
15328;DHT22;7764;51.430;6.840;2023-01-31T07:50:20;5.80;99.90
15328;DHT22;7764;51.430;6.840;2023-01-31T07:52:46;5.90;99.90
15328;DHT22;7764;51.430;6.840;2023-01-31T07:55:15;5.90;99.90
15328;DHT22;7764;51.430;6.840;2023-01-31T07:57:42;6.00;99.90
15328;DHT22;7764;51.430;6.840;2023-01-31T08:00:10;6.00;99.90
15328;DHT22;7764;51.430;6.840;2023-01-31T08:02:57;6.00;99.90
15328;DHT22;7764;51.430;6.840;2023-01-31T08:05:45;6.00;99.90
15328;DHT22;7764;51.430;6.840;2023-01-31T08:08:12;5.90;99.90
15328;DHT22;7764;51.430;6.840;2023-01-31T08:10:39;6.00;99.90
15328;DHT22;7764;51.430;6.840;2023-01-31T08:13:06;6.00;99.90
15328;DHT22;7764;51.430;6.840;2023-01-31T08:15:35;6.00;99.90
15328;DHT22;7764;51.430;6.840;2023-01-31T08:18:02;6.00;99.90
15328;DHT22;7764;51.430;6.840;2023-01-31T08:20:29;6.00;99.90
15328;DHT22;7764;51.430;6.840;2023-01-31T08:22:57;6.00;99.90
15328;DHT22;7764;51.430;6.840;2023-01-31T08:25:24;6.00;99.90
15328;DHT22;7764;51.430;6.840;2023-01-31T08:27:53;6.10;99.90
15328;DHT22;7764;51.430;6.840;2023-01-31T08:30:20;6.00;99.90
15328;DHT22;7764;51.430;6.840;2023-01-31T08:32:47;6.00;99.90
15328;DHT22;7764;51.430;6.840;2023-01-31T08:35:13;6.00;99.90
15328;DHT22;7764;51.430;6.840;2023-01-31T08:37:40;6.00;99.90
15328;DHT22;7764;51.430;6.840;2023-01-31T08:40:10;6.00;99.90
15328;DHT22;7764;51.430;6.840;2023-01-31T08:42:37;6.10;99.90
15328;DHT22;7764;51.430;6.840;2023-01-31T08:45:05;6.10;99.90
15328;DHT22;7764;51.430;6.840;2023-01-31T08:47:32;6.00;99.90
15328;DHT22;7764;51.430;6.840;2023-01-31T08:49:59;6.00;99.90
15328;DHT22;7764;51.430;6.840;2023-01-31T08:52:25;6.00;99.90
15328;DHT22;7764;51.430;6.840;2023-01-31T08:54:52;6.10;99.90
15328;DHT22;7764;51.430;6.840;2023-01-31T08:57:20;6.10;99.90
15328;DHT22;7764;51.430;6.840;2023-01-31T08:59:47;6.20;99.90
15328;DHT22;7764;51.430;6.840;2023-01-31T09:02:14;6.10;99.90
15328;DHT22;7764;51.430;6.840;2023-01-31T09:04:41;6.10;99.90
15328;DHT22;7764;51.430;6.840;2023-01-31T09:07:08;6.10;99.90
15328;DHT22;7764;51.430;6.840;2023-01-31T09:09:34;6.10;99.90
15328;DHT22;7764;51.430;6.840;2023-01-31T09:12:02;6.00;99.90
15328;DHT22;7764;51.430;6.840;2023-01-31T09:14:31;6.10;99.90
15328;DHT22;7764;51.430;6.840;2023-01-31T09:16:58;6.10;99.90
15328;DHT22;7764;51.430;6.840;2023-01-31T09:19:24;6.10;99.90
15328;DHT22;7764;51.430;6.840;2023-01-31T09:21:51;6.10;99.90
15328;DHT22;7764;51.430;6.840;2023-01-31T09:24:18;6.10;99.90
15328;DHT22;7764;51.430;6.840;2023-01-31T09:26:45;6.20;99.90
15328;DHT22;7764;51.430;6.840;2023-01-31T09:29:12;6.40;99.90
15328;DHT22;7764;51.430;6.840;2023-01-31T09:31:40;6.50;99.90
15328;DHT22;7764;51.430;6.840;2023-01-31T09:34:07;6.50;99.90
15328;DHT22;7764;51.430;6.840;2023-01-31T09:36:33;6.50;99.90
15328;DHT22;7764;51.430;6.840;2023-01-31T09:39:00;6.50;99.90
15328;DHT22;7764;51.430;6.840;2023-01-31T09:41:32;6.50;99.90
15328;DHT22;7764;51.430;6.840;2023-01-31T09:44:03;6.60;99.90
15328;DHT22;7764;51.430;6.840;2023-01-31T09:46:35;6.60;99.90
15328;DHT22;7764;51.430;6.840;2023-01-31T09:49:08;6.60;99.90
15328;DHT22;7764;51.430;6.840;2023-01-31T09:51:37;6.70;99.90
15328;DHT22;7764;51.430;6.840;2023-01-31T09:54:07;6.70;99.90
15328;DHT22;7764;51.430;6.840;2023-01-31T09:56:44;6.80;99.90
15328;DHT22;7764;51.430;6.840;2023-01-31T09:59:18;6.80;99.90
15328;DHT22;7764;51.430;6.840;2023-01-31T10:01:52;6.70;99.90
15328;DHT22;7764;51.430;6.840;2023-01-31T10:04:34;6.90;99.90
15328;DHT22;7764;51.430;6.840;2023-01-31T10:07:10;6.90;99.90
15328;DHT22;7764;51.430;6.840;2023-01-31T10:09:42;6.90;99.90
15328;DHT22;7764;51.430;6.840;2023-01-31T10:12:13;6.90;99.90
15328;DHT22;7764;51.430;6.840;2023-01-31T10:14:44;6.80;99.90
15328;DHT22;7764;51.430;6.840;2023-01-31T10:17:18;6.80;99.90
15328;DHT22;7764;51.430;6.840;2023-01-31T10:19:53;6.90;99.90
15328;DHT22;7764;51.430;6.840;2023-01-31T10:22:27;6.90;99.90
15328;DHT22;7764;51.430;6.840;2023-01-31T10:24:57;6.90;99.90
15328;DHT22;7764;51.430;6.840;2023-01-31T10:27:39;6.90;99.90
15328;DHT22;7764;51.430;6.840;2023-01-31T10:30:15;6.90;99.90
15328;DHT22;7764;51.430;6.840;2023-01-31T10:32:44;6.90;99.90
15328;DHT22;7764;51.430;6.840;2023-01-31T10:35:18;7.00;99.90
15328;DHT22;7764;51.430;6.840;2023-01-31T10:37:48;7.00;99.90
15328;DHT22;7764;51.430;6.840;2023-01-31T10:40:18;7.10;99.90
15328;DHT22;7764;51.430;6.840;2023-01-31T10:42:50;7.10;99.90
15328;DHT22;7764;51.430;6.840;2023-01-31T10:45:20;7.10;99.90
15328;DHT22;7764;51.430;6.840;2023-01-31T10:47:50;7.10;99.90
15328;DHT22;7764;51.430;6.840;2023-01-31T10:50:24;7.20;99.90
15328;DHT22;7764;51.430;6.840;2023-01-31T10:53:10;7.20;99.90
15328;DHT22;7764;51.430;6.840;2023-01-31T10:55:50;7.20;99.90
15328;DHT22;7764;51.430;6.840;2023-01-31T10:58:21;7.30;99.90
15328;DHT22;7764;51.430;6.840;2023-01-31T11:00:49;7.30;99.90
15328;DHT22;7764;51.430;6.840;2023-01-31T11:03:16;7.20;99.90
15328;DHT22;7764;51.430;6.840;2023-01-31T11:05:48;7.20;99.90
15328;DHT22;7764;51.430;6.840;2023-01-31T11:08:34;7.20;99.90
15328;DHT22;7764;51.430;6.840;2023-01-31T11:11:07;7.20;99.90
15328;DHT22;7764;51.430;6.840;2023-01-31T11:13:35;7.20;99.90
15328;DHT22;7764;51.430;6.840;2023-01-31T11:16:03;7.30;99.90
15328;DHT22;7764;51.430;6.840;2023-01-31T11:18:34;7.30;99.90
15328;DHT22;7764;51.430;6.840;2023-01-31T11:21:04;7.30;99.90
15328;DHT22;7764;51.430;6.840;2023-01-31T11:23:33;7.30;99.90
15328;DHT22;7764;51.430;6.840;2023-01-31T11:26:01;7.30;99.90
15328;DHT22;7764;51.430;6.840;2023-01-31T11:28:34;7.30;99.90
15328;DHT22;7764;51.430;6.840;2023-01-31T11:31:04;7.30;99.90
15328;DHT22;7764;51.430;6.840;2023-01-31T11:33:40;7.30;99.90
15328;DHT22;7764;51.430;6.840;2023-01-31T11:36:11;7.40;99.90
15328;DHT22;7764;51.430;6.840;2023-01-31T11:38:39;7.40;99.90
15328;DHT22;7764;51.430;6.840;2023-01-31T11:41:28;7.40;99.90
15328;DHT22;7764;51.430;6.840;2023-01-31T11:44:14;7.40;99.90
15328;DHT22;7764;51.430;6.840;2023-01-31T11:46:45;7.50;99.90
15328;DHT22;7764;51.430;6.840;2023-01-31T11:49:13;7.40;99.90
15328;DHT22;7764;51.430;6.840;2023-01-31T11:51:46;7.50;99.90
15328;DHT22;7764;51.430;6.840;2023-01-31T11:54:17;7.50;99.90
15328;DHT22;7764;51.430;6.840;2023-01-31T11:56:46;7.50;99.90
15328;DHT22;7764;51.430;6.840;2023-01-31T11:59:18;7.50;99.90
15328;DHT22;7764;51.430;6.840;2023-01-31T12:01:48;7.50;99.90
15328;DHT22;7764;51.430;6.840;2023-01-31T12:04:19;7.50;99.90
15328;DHT22;7764;51.430;6.840;2023-01-31T12:07:00;7.50;99.90
15328;DHT22;7764;51.430;6.840;2023-01-31T12:09:30;7.50;99.90
15328;DHT22;7764;51.430;6.840;2023-01-31T12:12:21;7.60;99.90
15328;DHT22;7764;51.430;6.840;2023-01-31T12:14:49;7.60;99.90
15328;DHT22;7764;51.430;6.840;2023-01-31T12:17:17;7.60;99.90
15328;DHT22;7764;51.430;6.840;2023-01-31T12:19:57;7.60;99.90
15328;DHT22;7764;51.430;6.840;2023-01-31T12:22:30;7.50;99.90
15328;DHT22;7764;51.430;6.840;2023-01-31T12:25:07;7.50;99.90
15328;DHT22;7764;51.430;6.840;2023-01-31T12:27:47;7.50;99.90
15328;DHT22;7764;51.430;6.840;2023-01-31T12:30:33;7.50;99.90
15328;DHT22;7764;51.430;6.840;2023-01-31T12:33:16;7.50;99.90
15328;DHT22;7764;51.430;6.840;2023-01-31T12:35:56;7.50;99.90
15328;DHT22;7764;51.430;6.840;2023-01-31T12:38:48;7.50;99.90
15328;DHT22;7764;51.430;6.840;2023-01-31T12:41:24;7.60;99.90
15328;DHT22;7764;51.430;6.840;2023-01-31T12:44:25;7.60;99.90
15328;DHT22;7764;51.430;6.840;2023-01-31T12:47:07;7.70;99.90
15328;DHT22;7764;51.430;6.840;2023-01-31T12:49:56;7.60;99.90
15328;DHT22;7764;51.430;6.840;2023-01-31T12:52:28;7.60;99.90
15328;DHT22;7764;51.430;6.840;2023-01-31T12:55:09;7.60;99.90
15328;DHT22;7764;51.430;6.840;2023-01-31T12:57:44;7.60;99.90
15328;DHT22;7764;51.430;6.840;2023-01-31T13:00:26;7.70;99.90
15328;DHT22;7764;51.430;6.840;2023-01-31T13:03:06;7.70;99.90
15328;DHT22;7764;51.430;6.840;2023-01-31T13:05:40;7.70;99.90
15328;DHT22;7764;51.430;6.840;2023-01-31T13:08:16;7.70;99.90
15328;DHT22;7764;51.430;6.840;2023-01-31T13:10:45;7.70;99.90
15328;DHT22;7764;51.430;6.840;2023-01-31T13:13:18;7.70;99.90
15328;DHT22;7764;51.430;6.840;2023-01-31T13:15:50;7.70;99.90
15328;DHT22;7764;51.430;6.840;2023-01-31T13:18:20;7.70;99.90
15328;DHT22;7764;51.430;6.840;2023-01-31T13:20:52;7.60;99.90
15328;DHT22;7764;51.430;6.840;2023-01-31T13:23:25;7.60;99.90
15328;DHT22;7764;51.430;6.840;2023-01-31T13:26:04;7.50;99.90
15328;DHT22;7764;51.430;6.840;2023-01-31T13:28:35;7.60;99.90
15328;DHT22;7764;51.430;6.840;2023-01-31T13:31:07;7.60;99.90
15328;DHT22;7764;51.430;6.840;2023-01-31T13:33:38;7.50;99.90
15328;DHT22;7764;51.430;6.840;2023-01-31T13:36:17;7.50;99.90
15328;DHT22;7764;51.430;6.840;2023-01-31T13:38:46;7.50;99.90
15328;DHT22;7764;51.430;6.840;2023-01-31T13:41:23;7.60;99.90
15328;DHT22;7764;51.430;6.840;2023-01-31T13:43:52;7.50;99.90
15328;DHT22;7764;51.430;6.840;2023-01-31T13:46:22;7.60;99.90
15328;DHT22;7764;51.430;6.840;2023-01-31T13:48:54;7.60;99.90
15328;DHT22;7764;51.430;6.840;2023-01-31T13:51:24;7.60;99.90
15328;DHT22;7764;51.430;6.840;2023-01-31T13:53:57;7.60;99.90
15328;DHT22;7764;51.430;6.840;2023-01-31T13:56:29;7.60;99.90
15328;DHT22;7764;51.430;6.840;2023-01-31T13:58:57;7.60;99.90
15328;DHT22;7764;51.430;6.840;2023-01-31T14:01:27;7.70;99.90
15328;DHT22;7764;51.430;6.840;2023-01-31T14:04:19;7.70;99.90
15328;DHT22;7764;51.430;6.840;2023-01-31T14:07:13;7.60;99.90
15328;DHT22;7764;51.430;6.840;2023-01-31T14:09:43;7.60;99.90
15328;DHT22;7764;51.430;6.840;2023-01-31T14:12:34;7.50;99.90
15328;DHT22;7764;51.430;6.840;2023-01-31T14:15:02;7.50;99.90
15328;DHT22;7764;51.430;6.840;2023-01-31T14:17:57;7.60;99.90
15328;DHT22;7764;51.430;6.840;2023-01-31T14:20:29;7.60;99.90
15328;DHT22;7764;51.430;6.840;2023-01-31T14:23:28;7.50;99.90
15328;DHT22;7764;51.430;6.840;2023-01-31T14:25:55;7.60;99.90
15328;DHT22;7764;51.430;6.840;2023-01-31T14:28:24;7.60;99.90
15328;DHT22;7764;51.430;6.840;2023-01-31T14:30:51;7.50;99.90
15328;DHT22;7764;51.430;6.840;2023-01-31T14:33:24;7.60;99.90
15328;DHT22;7764;51.430;6.840;2023-01-31T14:36:18;7.60;99.90
15328;DHT22;7764;51.430;6.840;2023-01-31T14:41:49;7.60;99.90
15328;DHT22;7764;51.430;6.840;2023-01-31T14:44:27;7.50;99.90
15328;DHT22;7764;51.430;6.840;2023-01-31T14:47:10;7.60;99.90
15328;DHT22;7764;51.430;6.840;2023-01-31T14:50:04;7.50;99.90
15328;DHT22;7764;51.430;6.840;2023-01-31T14:53:03;7.50;99.90
15328;DHT22;7764;51.430;6.840;2023-01-31T14:55:55;7.50;99.90
15328;DHT22;7764;51.430;6.840;2023-01-31T14:58:26;7.50;99.90
15328;DHT22;7764;51.430;6.840;2023-01-31T15:00:57;7.60;99.90
15328;DHT22;7764;51.430;6.840;2023-01-31T15:03:27;7.60;99.90
15328;DHT22;7764;51.430;6.840;2023-01-31T15:06:04;7.60;99.90
15328;DHT22;7764;51.430;6.840;2023-01-31T15:08:43;7.60;99.90
15328;DHT22;7764;51.430;6.840;2023-01-31T15:11:13;7.50;99.90
15328;DHT22;7764;51.430;6.840;2023-01-31T15:14:00;7.60;99.90
15328;DHT22;7764;51.430;6.840;2023-01-31T15:16:31;7.60;99.90
15328;DHT22;7764;51.430;6.840;2023-01-31T15:19:04;7.60;99.90
15328;DHT22;7764;51.430;6.840;2023-01-31T15:21:35;7.60;99.90
15328;DHT22;7764;51.430;6.840;2023-01-31T15:24:09;7.70;99.90
15328;DHT22;7764;51.430;6.840;2023-01-31T15:26:39;7.70;99.90
15328;DHT22;7764;51.430;6.840;2023-01-31T15:29:06;7.60;99.90
15328;DHT22;7764;51.430;6.840;2023-01-31T15:31:44;7.60;99.90
15328;DHT22;7764;51.430;6.840;2023-01-31T15:34:15;7.60;99.90
15328;DHT22;7764;51.430;6.840;2023-01-31T15:36:49;7.60;99.90
15328;DHT22;7764;51.430;6.840;2023-01-31T15:39:22;7.60;99.90
15328;DHT22;7764;51.430;6.840;2023-01-31T15:41:51;7.70;99.90
15328;DHT22;7764;51.430;6.840;2023-01-31T15:44:20;7.70;99.90
15328;DHT22;7764;51.430;6.840;2023-01-31T15:46:49;7.70;99.90
15328;DHT22;7764;51.430;6.840;2023-01-31T15:49:27;7.70;99.90
15328;DHT22;7764;51.430;6.840;2023-01-31T15:52:13;7.80;99.90
15328;DHT22;7764;51.430;6.840;2023-01-31T15:54:50;7.70;99.90
15328;DHT22;7764;51.430;6.840;2023-01-31T15:57:18;7.80;99.90
15328;DHT22;7764;51.430;6.840;2023-01-31T15:59:46;7.90;99.90
15328;DHT22;7764;51.430;6.840;2023-01-31T16:02:21;7.90;99.90
15328;DHT22;7764;51.430;6.840;2023-01-31T16:04:48;7.80;99.90
15328;DHT22;7764;51.430;6.840;2023-01-31T16:07:18;7.80;99.90
15328;DHT22;7764;51.430;6.840;2023-01-31T16:09:47;7.90;99.90
15328;DHT22;7764;51.430;6.840;2023-01-31T16:12:15;7.90;99.90
15328;DHT22;7764;51.430;6.840;2023-01-31T16:14:45;7.90;99.90
15328;DHT22;7764;51.430;6.840;2023-01-31T16:17:13;7.90;99.90
15328;DHT22;7764;51.430;6.840;2023-01-31T16:19:43;7.90;99.90
15328;DHT22;7764;51.430;6.840;2023-01-31T16:22:24;7.90;99.90
15328;DHT22;7764;51.430;6.840;2023-01-31T16:24:55;7.90;99.90
15328;DHT22;7764;51.430;6.840;2023-01-31T16:27:23;7.90;99.90
15328;DHT22;7764;51.430;6.840;2023-01-31T16:29:52;7.90;99.90
15328;DHT22;7764;51.430;6.840;2023-01-31T16:32:21;7.90;99.90
15328;DHT22;7764;51.430;6.840;2023-01-31T16:34:55;7.90;99.90
15328;DHT22;7764;51.430;6.840;2023-01-31T16:37:34;8.00;99.90
15328;DHT22;7764;51.430;6.840;2023-01-31T16:40:06;8.00;99.90